Terminal Aerodrome Forecast
Issued by NWS

Home | Current Version | Previous Version | Text Only | Print | Product List | Glossary On
Versions: 1 2 3 4 5 6 7 8 9 10 11 12 13 14 15 16 17 18 19 20 21 22
000
FTAK31 PANC 080703 AAA
TAFAHO
TAF AMD
PAHO 080703Z 0807/0906 04006KT P6SM VCSH SCT015 BKN040
      TEMPO 0807/0809 BKN015
     FM090300 04008KT P6SM -SHSN BKN035=

USA.gov is the U.S. government's official web portal to all federal, state and local government web resources and services.